sensor_id;sensor_type;location;lat;lon;timestamp;pressure;altitude;pressure_sealevel;temperature;humidity
17785;BME280;9016;53.582;10.062;2022-08-19T00:01:25;101159.59;;;22.29;81.63
17785;BME280;9016;53.582;10.062;2022-08-19T00:03:56;101148.34;;;22.24;81.40
17785;BME280;9016;53.582;10.062;2022-08-19T00:06:24;101131.53;;;22.03;83.19
17785;BME280;9016;53.582;10.062;2022-08-19T00:08:53;101135.66;;;22.07;83.18
17785;BME280;9016;53.582;10.062;2022-08-19T00:11:21;101131.53;;;22.03;84.06
17785;BME280;9016;53.582;10.062;2022-08-19T00:13:51;101130.72;;;22.02;84.38
17785;BME280;9016;53.582;10.062;2022-08-19T00:16:23;101124.09;;;22.05;84.71
17785;BME280;9016;53.582;10.062;2022-08-19T00:18:52;101132.94;;;22.07;84.40
17785;BME280;9016;53.582;10.062;2022-08-19T00:21:22;101135.81;;;22.05;85.27
17785;BME280;9016;53.582;10.062;2022-08-19T00:23:50;101138.34;;;22.07;85.25
17785;BME280;9016;53.582;10.062;2022-08-19T00:26:18;101134.41;;;22.01;85.87
17785;BME280;9016;53.582;10.062;2022-08-19T00:28:46;101134.19;;;21.95;86.54
17785;BME280;9016;53.582;10.062;2022-08-19T00:31:14;101137.03;;;21.93;86.95
17785;BME280;9016;53.582;10.062;2022-08-19T00:33:44;101133.88;;;21.98;86.91
17785;BME280;9016;53.582;10.062;2022-08-19T00:36:14;101137.13;;;22.01;86.39
17785;BME280;9016;53.582;10.062;2022-08-19T00:38:42;101134.41;;;22.01;86.52
17785;BME280;9016;53.582;10.062;2022-08-19T00:41:13;101132.56;;;22.02;86.53
17785;BME280;9016;53.582;10.062;2022-08-19T00:43:43;101129.31;;;21.98;86.91
17785;BME280;9016;53.582;10.062;2022-08-19T00:46:11;101123.56;;;22.01;87.02
17785;BME280;9016;53.582;10.062;2022-08-19T00:48:39;101113.56;;;22.02;86.32
17785;BME280;9016;53.582;10.062;2022-08-19T00:51:08;101121.00;;;22.00;86.31
17785;BME280;9016;53.582;10.062;2022-08-19T00:53:37;101123.56;;;22.01;86.78
17785;BME280;9016;53.582;10.062;2022-08-19T00:56:06;101121.16;;;21.98;87.08
17785;BME280;9016;53.582;10.062;2022-08-19T00:58:35;101118.59;;;21.97;87.20
17785;BME280;9016;53.582;10.062;2022-08-19T01:01:05;101112.50;;;21.95;86.97
17785;BME280;9016;53.582;10.062;2022-08-19T01:03:34;101114.41;;;21.85;87.54
17785;BME280;9016;53.582;10.062;2022-08-19T01:06:23;101114.94;;;21.88;87.45
17785;BME280;9016;53.582;10.062;2022-08-19T01:08:52;101119.28;;;21.99;86.90
17785;BME280;9016;53.582;10.062;2022-08-19T01:11:21;101116.72;;;21.97;86.97
17785;BME280;9016;53.582;10.062;2022-08-19T01:13:50;101128.78;;;21.95;86.34
17785;BME280;9016;53.582;10.062;2022-08-19T01:16:20;101116.72;;;21.97;86.72
17785;BME280;9016;53.582;10.062;2022-08-19T01:18:49;101112.41;;;21.87;86.88
17785;BME280;9016;53.582;10.062;2022-08-19T01:21:23;101120.09;;;21.91;86.97
17785;BME280;9016;53.582;10.062;2022-08-19T01:23:55;101107.06;;;21.95;86.48
17785;BME280;9016;53.582;10.062;2022-08-19T01:26:24;101109.13;;;22.01;86.61
17785;BME280;9016;53.582;10.062;2022-08-19T01:28:54;101108.41;;;21.99;86.62
17785;BME280;9016;53.582;10.062;2022-08-19T01:31:27;101115.50;;;21.92;86.74
17785;BME280;9016;53.582;10.062;2022-08-19T01:33:59;101110.75;;;21.94;87.25
17785;BME280;9016;53.582;10.062;2022-08-19T01:36:30;101108.91;;;21.94;87.20
17785;BME280;9016;53.582;10.062;2022-08-19T01:39:04;101110.22;;;21.90;87.41
17785;BME280;9016;53.582;10.062;2022-08-19T01:41:32;101103.72;;;21.83;87.94
17785;BME280;9016;53.582;10.062;2022-08-19T01:44:02;101097.16;;;21.86;88.29
17785;BME280;9016;53.582;10.062;2022-08-19T01:46:46;101095.78;;;21.90;87.51
17785;BME280;9016;53.582;10.062;2022-08-19T01:49:16;101092.25;;;21.89;87.44
17785;BME280;9016;53.582;10.062;2022-08-19T01:51:44;101089.84;;;21.86;87.21
17785;BME280;9016;53.582;10.062;2022-08-19T01:54:14;101083.78;;;21.92;87.72
17785;BME280;9016;53.582;10.062;2022-08-19T01:56:59;101077.19;;;21.95;87.16
17785;BME280;9016;53.582;10.062;2022-08-19T01:59:28;101086.97;;;21.88;87.92
17785;BME280;9016;53.582;10.062;2022-08-19T02:01:57;101081.78;;;21.94;87.39
17785;BME280;9016;53.582;10.062;2022-08-19T02:04:25;101083.47;;;21.95;87.72
17785;BME280;9016;53.582;10.062;2022-08-19T02:06:53;101085.19;;;21.96;87.66
17785;BME280;9016;53.582;10.062;2022-08-19T02:09:23;101087.94;;;22.04;87.30
17785;BME280;9016;53.582;10.062;2022-08-19T02:11:51;101083.53;;;22.03;87.80
17785;BME280;9016;53.582;10.062;2022-08-19T02:14:19;101077.41;;;22.01;87.48
17785;BME280;9016;53.582;10.062;2022-08-19T02:16:47;101076.41;;;22.02;87.73
17785;BME280;9016;53.582;10.062;2022-08-19T02:19:15;101067.25;;;22.03;87.54
17785;BME280;9016;53.582;10.062;2022-08-19T02:21:44;101060.44;;;21.99;87.67
17785;BME280;9016;53.582;10.062;2022-08-19T02:24:11;101056.31;;;21.95;87.66
17785;BME280;9016;53.582;10.062;2022-08-19T02:26:41;101048.50;;;21.92;88.59
17785;BME280;9016;53.582;10.062;2022-08-19T02:29:09;101055.94;;;21.90;88.25
17785;BME280;9016;53.582;10.062;2022-08-19T02:31:37;101057.09;;;21.88;89.53
17785;BME280;9016;53.582;10.062;2022-08-19T02:34:05;101066.06;;;21.80;90.01
17785;BME280;9016;53.582;10.062;2022-08-19T02:36:33;101074.56;;;21.85;89.53
17785;BME280;9016;53.582;10.062;2022-08-19T02:39:01;101077.56;;;21.82;89.75
17785;BME280;9016;53.582;10.062;2022-08-19T02:41:31;101083.00;;;21.82;90.09
17785;BME280;9016;53.582;10.062;2022-08-19T02:44:02;101070.47;;;21.81;89.90
17785;BME280;9016;53.582;10.062;2022-08-19T02:46:50;101075.03;;;21.81;90.15
17785;BME280;9016;53.582;10.062;2022-08-19T02:49:19;101065.63;;;21.75;90.82
17785;BME280;9016;53.582;10.062;2022-08-19T02:51:47;101060.91;;;21.77;90.76
17785;BME280;9016;53.582;10.062;2022-08-19T02:54:15;101067.25;;;21.68;91.26
17785;BME280;9016;53.582;10.062;2022-08-19T02:56:44;101067.34;;;21.58;92.00
17785;BME280;9016;53.582;10.062;2022-08-19T02:59:14;101072.22;;;21.55;92.43
17785;BME280;9016;53.582;10.062;2022-08-19T03:01:42;101075.19;;;21.61;92.86
17785;BME280;9016;53.582;10.062;2022-08-19T03:04:13;101066.00;;;21.62;92.34
17785;BME280;9016;53.582;10.062;2022-08-19T03:06:45;101070.19;;;21.57;93.26
17785;BME280;9016;53.582;10.062;2022-08-19T03:09:14;101077.09;;;21.51;93.56
17785;BME280;9016;53.582;10.062;2022-08-19T03:11:42;101075.00;;;21.45;93.85
17785;BME280;9016;53.582;10.062;2022-08-19T03:14:11;101079.28;;;21.48;94.58
17785;BME280;9016;53.582;10.062;2022-08-19T03:16:46;101070.97;;;21.49;94.60
17785;BME280;9016;53.582;10.062;2022-08-19T03:19:16;101076.78;;;21.54;93.98
17785;BME280;9016;53.582;10.062;2022-08-19T03:21:45;101071.06;;;21.57;93.51
17785;BME280;9016;53.582;10.062;2022-08-19T03:24:15;101077.19;;;21.59;94.14
17785;BME280;9016;53.582;10.062;2022-08-19T03:26:45;101073.53;;;21.51;93.77
17785;BME280;9016;53.582;10.062;2022-08-19T03:29:14;101075.69;;;21.47;94.06
17785;BME280;9016;53.582;10.062;2022-08-19T03:31:58;101075.53;;;21.49;94.93
17785;BME280;9016;53.582;10.062;2022-08-19T03:34:28;101070.59;;;21.44;95.00
17785;BME280;9016;53.582;10.062;2022-08-19T03:36:59;101071.44;;;21.45;95.33
17785;BME280;9016;53.582;10.062;2022-08-19T03:39:30;101078.25;;;21.49;95.80
17785;BME280;9016;53.582;10.062;2022-08-19T03:41:58;101076.72;;;21.46;95.14
17785;BME280;9016;53.582;10.062;2022-08-19T03:44:47;101072.28;;;21.45;95.48
17785;BME280;9016;53.582;10.062;2022-08-19T03:47:17;101083.06;;;21.55;95.13
17785;BME280;9016;53.582;10.062;2022-08-19T03:49:45;101087.19;;;21.59;94.58
17785;BME280;9016;53.582;10.062;2022-08-19T03:52:13;101096.06;;;21.51;94.71
17785;BME280;9016;53.582;10.062;2022-08-19T03:54:41;101095.31;;;21.59;94.40
17785;BME280;9016;53.582;10.062;2022-08-19T03:57:09;101096.00;;;21.61;94.06
17785;BME280;9016;53.582;10.062;2022-08-19T03:59:38;101097.88;;;21.60;93.74
17785;BME280;9016;53.582;10.062;2022-08-19T04:02:08;101107.72;;;21.61;93.68
17785;BME280;9016;53.582;10.062;2022-08-19T04:04:40;101115.88;;;21.61;93.43
17785;BME280;9016;53.582;10.062;2022-08-19T04:07:10;101126.16;;;21.58;93.63
17785;BME280;9016;53.582;10.062;2022-08-19T04:09:39;101118.03;;;21.58;94.41
17785;BME280;9016;53.582;10.062;2022-08-19T04:12:08;101113.97;;;21.62;93.83
17785;BME280;9016;53.582;10.062;2022-08-19T04:14:36;101113.97;;;21.62;93.63
17785;BME280;9016;53.582;10.062;2022-08-19T04:17:04;101114.06;;;21.70;93.42
17785;BME280;9016;53.582;10.062;2022-08-19T04:19:32;101114.63;;;21.56;93.17
17785;BME280;9016;53.582;10.062;2022-08-19T04:22:03;101126.06;;;21.50;94.18
17785;BME280;9016;53.582;10.062;2022-08-19T04:24:31;101135.28;;;21.57;94.28
17785;BME280;9016;53.582;10.062;2022-08-19T04:26:59;101132.13;;;21.61;93.95
17785;BME280;9016;53.582;10.062;2022-08-19T04:29:28;101142.72;;;21.55;94.06
17785;BME280;9016;53.582;10.062;2022-08-19T04:31:58;101137.78;;;21.50;94.05
17785;BME280;9016;53.582;10.062;2022-08-19T04:34:35;101141.75;;;21.56;93.95
17785;BME280;9016;53.582;10.062;2022-08-19T04:37:25;101145.00;;;21.59;94.08
17785;BME280;9016;53.582;10.062;2022-08-19T04:40:00;101145.22;;;21.66;93.50
17785;BME280;9016;53.582;10.062;2022-08-19T04:42:46;101137.63;;;21.69;93.08
17785;BME280;9016;53.582;10.062;2022-08-19T04:45:14;101133.81;;;21.62;93.11
17785;BME280;9016;53.582;10.062;2022-08-19T04:47:43;101140.13;;;21.63;93.17
17785;BME280;9016;53.582;10.062;2022-08-19T04:50:23;101138.94;;;21.65;92.91
17785;BME280;9016;53.582;10.062;2022-08-19T04:52:53;101145.75;;;21.69;92.82
17785;BME280;9016;53.582;10.062;2022-08-19T04:55:23;101142.66;;;21.64;93.02
17785;BME280;9016;53.582;10.062;2022-08-19T04:57:53;101152.50;;;21.65;93.20
17785;BME280;9016;53.582;10.062;2022-08-19T05:00:22;101151.19;;;21.52;93.45
17785;BME280;9016;53.582;10.062;2022-08-19T05:02:50;101150.22;;;21.43;93.76
17785;BME280;9016;53.582;10.062;2022-08-19T05:05:18;101146.84;;;21.41;94.96
17785;BME280;9016;53.582;10.062;2022-08-19T05:07:47;101150.47;;;21.50;94.29
17785;BME280;9016;53.582;10.062;2022-08-19T05:10:17;101152.53;;;21.38;94.62
17785;BME280;9016;53.582;10.062;2022-08-19T05:12:45;101147.66;;;21.42;95.22
17785;BME280;9016;53.582;10.062;2022-08-19T05:15:13;101156.59;;;21.52;94.40
17785;BME280;9016;53.582;10.062;2022-08-19T05:17:41;101162.63;;;21.46;94.16
17785;BME280;9016;53.582;10.062;2022-08-19T05:20:29;101161.56;;;21.56;93.89
17785;BME280;9016;53.582;10.062;2022-08-19T05:23:15;101157.78;;;21.67;93.24
17785;BME280;9016;53.582;10.062;2022-08-19T05:25:49;101166.16;;;21.56;92.55
17785;BME280;9016;53.582;10.062;2022-08-19T05:28:18;101168.88;;;21.56;93.13
17785;BME280;9016;53.582;10.062;2022-08-19T05:30:47;101170.44;;;21.49;93.09
17785;BME280;9016;53.582;10.062;2022-08-19T05:33:17;101170.59;;;21.47;93.46
17785;BME280;9016;53.582;10.062;2022-08-19T05:35:45;101172.50;;;21.47;93.49
17785;BME280;9016;53.582;10.062;2022-08-19T05:38:15;101166.78;;;21.40;94.67
17785;BME280;9016;53.582;10.062;2022-08-19T05:40:43;101175.03;;;21.48;94.25
17785;BME280;9016;53.582;10.062;2022-08-19T05:43:16;101170.16;;;21.52;93.44
17785;BME280;9016;53.582;10.062;2022-08-19T05:45:45;101163.28;;;21.57;93.73
17785;BME280;9016;53.582;10.062;2022-08-19T05:48:13;101161.28;;;21.59;92.60
17785;BME280;9016;53.582;10.062;2022-08-19T05:50:42;101164.75;;;21.52;93.48
17785;BME280;9016;53.582;10.062;2022-08-19T05:53:11;101168.16;;;21.54;93.36
17785;BME280;9016;53.582;10.062;2022-08-19T05:55:41;101156.44;;;21.53;93.12
17785;BME280;9016;53.582;10.062;2022-08-19T05:58:09;101156.28;;;21.55;93.26
17785;BME280;9016;53.582;10.062;2022-08-19T06:00:39;101167.91;;;21.47;92.95
17785;BME280;9016;53.582;10.062;2022-08-19T06:03:07;101161.25;;;21.32;95.21
17785;BME280;9016;53.582;10.062;2022-08-19T06:05:39;101163.94;;;21.42;94.20
17785;BME280;9016;53.582;10.062;2022-08-19T06:08:16;101161.94;;;21.44;93.56
17785;BME280;9016;53.582;10.062;2022-08-19T06:10:45;101163.66;;;21.45;93.59
17785;BME280;9016;53.582;10.062;2022-08-19T06:13:13;101162.31;;;21.49;93.54
17785;BME280;9016;53.582;10.062;2022-08-19T06:15:42;101163.13;;;21.59;93.49
17785;BME280;9016;53.582;10.062;2022-08-19T06:18:13;101159.69;;;21.57;92.82
17785;BME280;9016;53.582;10.062;2022-08-19T06:20:42;101163.44;;;21.56;93.13
17785;BME280;9016;53.582;10.062;2022-08-19T06:23:23;101171.81;;;21.62;93.36
17785;BME280;9016;53.582;10.062;2022-08-19T06:25:52;101164.25;;;21.56;94.09
17785;BME280;9016;53.582;10.062;2022-08-19T06:28:20;101168.00;;;21.73;92.59
17785;BME280;9016;53.582;10.062;2022-08-19T06:30:51;101164.31;;;21.74;91.71
17785;BME280;9016;53.582;10.062;2022-08-19T06:33:19;101167.88;;;21.75;91.90
17785;BME280;9016;53.582;10.062;2022-08-19T06:35:47;101164.72;;;21.79;91.54
17785;BME280;9016;53.582;10.062;2022-08-19T06:38:15;101160.41;;;21.77;91.06
17785;BME280;9016;53.582;10.062;2022-08-19T06:40:43;101157.44;;;21.80;91.65
17785;BME280;9016;53.582;10.062;2022-08-19T06:43:11;101158.41;;;21.79;91.11
17785;BME280;9016;53.582;10.062;2022-08-19T06:45:44;101153.97;;;21.87;91.01
17785;BME280;9016;53.582;10.062;2022-08-19T06:48:14;101148.47;;;21.97;90.62
17785;BME280;9016;53.582;10.062;2022-08-19T06:50:43;101145.81;;;21.87;89.73
17785;BME280;9016;53.582;10.062;2022-08-19T06:53:12;101154.19;;;21.94;90.38
17785;BME280;9016;53.582;10.062;2022-08-19T06:55:40;101159.22;;;21.89;90.47
17785;BME280;9016;53.582;10.062;2022-08-19T06:58:08;101160.16;;;21.97;89.87
17785;BME280;9016;53.582;10.062;2022-08-19T07:00:37;101154.66;;;21.89;90.27
17785;BME280;9016;53.582;10.062;2022-08-19T07:03:05;101158.91;;;21.92;90.54
17785;BME280;9016;53.582;10.062;2022-08-19T07:05:40;101162.81;;;21.89;89.47
17785;BME280;9016;53.582;10.062;2022-08-19T07:08:12;101161.47;;;21.93;89.73
17785;BME280;9016;53.582;10.062;2022-08-19T07:10:43;101159.41;;;21.87;90.15
17785;BME280;9016;53.582;10.062;2022-08-19T07:13:11;101155.81;;;21.87;90.26
17785;BME280;9016;53.582;10.062;2022-08-19T07:15:39;101156.97;;;22.02;89.68
17785;BME280;9016;53.582;10.062;2022-08-19T07:18:08;101156.50;;;22.06;89.43
17785;BME280;9016;53.582;10.062;2022-08-19T07:20:39;101156.91;;;22.11;89.35
17785;BME280;9016;53.582;10.062;2022-08-19T07:23:08;101159.13;;;22.16;88.50
17785;BME280;9016;53.582;10.062;2022-08-19T07:25:42;101161.94;;;22.24;87.43
17785;BME280;9016;53.582;10.062;2022-08-19T07:28:18;101169.47;;;22.12;87.05
17785;BME280;9016;53.582;10.062;2022-08-19T07:30:51;101164.81;;;22.22;87.60
17785;BME280;9016;53.582;10.062;2022-08-19T07:33:19;101166.16;;;22.26;87.12
17785;BME280;9016;53.582;10.062;2022-08-19T07:35:48;101175.63;;;22.40;86.17
17785;BME280;9016;53.582;10.062;2022-08-19T07:38:17;101186.75;;;22.29;86.64
17785;BME280;9016;53.582;10.062;2022-08-19T07:40:45;101189.09;;;22.24;87.01
17785;BME280;9016;53.582;10.062;2022-08-19T07:43:13;101190.19;;;22.13;87.58
17785;BME280;9016;53.582;10.062;2022-08-19T07:45:44;101198.47;;;22.12;88.65
17785;BME280;9016;53.582;10.062;2022-08-19T07:48:13;101188.72;;;22.19;88.00
17785;BME280;9016;53.582;10.062;2022-08-19T07:50:42;101194.34;;;22.25;87.71
17785;BME280;9016;53.582;10.062;2022-08-19T07:53:11;101195.25;;;22.34;87.43
17785;BME280;9016;53.582;10.062;2022-08-19T07:55:39;101198.47;;;22.29;87.20
17785;BME280;9016;53.582;10.062;2022-08-19T07:58:11;101205.13;;;22.35;86.67
17785;BME280;9016;53.582;10.062;2022-08-19T08:00:40;101202.41;;;22.35;86.80
17785;BME280;9016;53.582;10.062;2022-08-19T08:03:08;101209.00;;;22.32;87.56
17785;BME280;9016;53.582;10.062;2022-08-19T08:05:36;101213.81;;;22.38;86.88
17785;BME280;9016;53.582;10.062;2022-08-19T08:08:23;101218.94;;;22.41;87.09
17785;BME280;9016;53.582;10.062;2022-08-19T08:11:14;101221.44;;;22.35;86.83
17785;BME280;9016;53.582;10.062;2022-08-19T08:13:45;101218.56;;;22.36;87.30
17785;BME280;9016;53.582;10.062;2022-08-19T08:16:27;101215.28;;;22.33;86.14
17785;BME280;9016;53.582;10.062;2022-08-19T08:18:56;101221.06;;;22.30;87.08
17785;BME280;9016;53.582;10.062;2022-08-19T08:21:24;101220.34;;;22.28;86.94
17785;BME280;9016;53.582;10.062;2022-08-19T08:23:54;101228.00;;;22.32;86.93
17785;BME280;9016;53.582;10.062;2022-08-19T08:26:23;101225.22;;;22.42;86.85
17785;BME280;9016;53.582;10.062;2022-08-19T08:28:51;101228.72;;;22.34;86.99
17785;BME280;9016;53.582;10.062;2022-08-19T08:31:19;101231.75;;;22.31;86.97
17785;BME280;9016;53.582;10.062;2022-08-19T08:33:47;101226.63;;;22.28;86.66
17785;BME280;9016;53.582;10.062;2022-08-19T08:36:15;101236.78;;;22.26;87.41
17785;BME280;9016;53.582;10.062;2022-08-19T08:38:44;101239.66;;;22.25;87.37
17785;BME280;9016;53.582;10.062;2022-08-19T08:41:19;101241.31;;;22.35;87.49
17785;BME280;9016;53.582;10.062;2022-08-19T08:43:53;101229.75;;;22.33;87.38
17785;BME280;9016;53.582;10.062;2022-08-19T08:46:25;101235.38;;;22.40;86.31
17785;BME280;9016;53.582;10.062;2022-08-19T08:49:02;101236.88;;;22.52;86.16
17785;BME280;9016;53.582;10.062;2022-08-19T08:51:38;101238.84;;;22.59;85.69
17785;BME280;9016;53.582;10.062;2022-08-19T08:54:14;101235.41;;;22.57;85.31
17785;BME280;9016;53.582;10.062;2022-08-19T08:56:44;101237.63;;;22.62;85.86
17785;BME280;9016;53.582;10.062;2022-08-19T08:59:21;101235.53;;;22.74;85.03
17785;BME280;9016;53.582;10.062;2022-08-19T09:01:50;101239.75;;;22.68;84.87
17785;BME280;9016;53.582;10.062;2022-08-19T09:04:19;101240.81;;;22.75;84.75
17785;BME280;9016;53.582;10.062;2022-08-19T09:06:53;101244.41;;;22.84;83.70
17785;BME280;9016;53.582;10.062;2022-08-19T09:09:29;101243.34;;;22.77;83.41
17785;BME280;9016;53.582;10.062;2022-08-19T09:12:09;101238.00;;;22.85;83.19
17785;BME280;9016;53.582;10.062;2022-08-19T09:14:45;101241.50;;;22.77;83.61
17785;BME280;9016;53.582;10.062;2022-08-19T09:17:20;101248.16;;;22.83;83.51
17785;BME280;9016;53.582;10.062;2022-08-19T09:19:59;101241.34;;;22.79;83.09
17785;BME280;9016;53.582;10.062;2022-08-19T09:22:35;101247.78;;;22.78;83.59
17785;BME280;9016;53.582;10.062;2022-08-19T09:25:04;101248.34;;;22.81;83.26
17785;BME280;9016;53.582;10.062;2022-08-19T09:27:36;101241.19;;;22.80;83.57
17785;BME280;9016;53.582;10.062;2022-08-19T09:30:12;101250.97;;;22.73;83.51
17785;BME280;9016;53.582;10.062;2022-08-19T09:32:42;101251.47;;;22.69;84.67
17785;BME280;9016;53.582;10.062;2022-08-19T09:35:11;101250.34;;;22.79;83.90
17785;BME280;9016;53.582;10.062;2022-08-19T09:37:40;101243.59;;;22.83;83.91
17785;BME280;9016;53.582;10.062;2022-08-19T09:40:11;101246.84;;;22.87;84.07
17785;BME280;9016;53.582;10.062;2022-08-19T09:42:42;101237.63;;;22.80;83.67
17785;BME280;9016;53.582;10.062;2022-08-19T09:45:20;101244.22;;;22.77;84.50
17785;BME280;9016;53.582;10.062;2022-08-19T09:47:50;101246.47;;;22.82;83.90
17785;BME280;9016;53.582;10.062;2022-08-19T09:50:21;101244.59;;;22.82;83.73
17785;BME280;9016;53.582;10.062;2022-08-19T09:52:50;101240.00;;;22.83;84.26
17785;BME280;9016;53.582;10.062;2022-08-19T09:55:24;101243.88;;;22.80;83.45
17785;BME280;9016;53.582;10.062;2022-08-19T09:58:00;101244.59;;;22.82;83.83
17785;BME280;9016;53.582;10.062;2022-08-19T10:00:29;101244.28;;;22.85;83.90
17785;BME280;9016;53.582;10.062;2022-08-19T10:02:58;101242.13;;;22.97;83.48
17785;BME280;9016;53.582;10.062;2022-08-19T10:05:26;101236.59;;;23.06;83.02
17785;BME280;9016;53.582;10.062;2022-08-19T10:08:16;101237.56;;;22.97;82.89
17785;BME280;9016;53.582;10.062;2022-08-19T10:10:47;101238.44;;;22.98;82.38
17785;BME280;9016;53.582;10.062;2022-08-19T10:13:19;101244.72;;;22.98;83.61
17785;BME280;9016;53.582;10.062;2022-08-19T10:15:53;101238.97;;;23.01;82.35
17785;BME280;9016;53.582;10.062;2022-08-19T10:18:23;101250.72;;;23.10;83.25
17785;BME280;9016;53.582;10.062;2022-08-19T10:20:52;101238.75;;;23.20;82.94
17785;BME280;9016;53.582;10.062;2022-08-19T10:23:30;101252.63;;;23.35;82.21
17785;BME280;9016;53.582;10.062;2022-08-19T10:26:00;101247.38;;;23.41;81.93
17785;BME280;9016;53.582;10.062;2022-08-19T10:28:32;101244.47;;;23.43;80.91
17785;BME280;9016;53.582;10.062;2022-08-19T10:31:05;101248.94;;;23.52;80.61
17785;BME280;9016;53.582;10.062;2022-08-19T10:33:34;101245.22;;;23.53;81.04
17785;BME280;9016;53.582;10.062;2022-08-19T10:36:21;101240.50;;;23.63;80.02
17785;BME280;9016;53.582;10.062;2022-08-19T10:38:52;101249.56;;;23.72;80.43
17785;BME280;9016;53.582;10.062;2022-08-19T10:41:24;101249.50;;;23.64;78.98
17785;BME280;9016;53.582;10.062;2022-08-19T10:43:56;101238.28;;;23.67;79.18
17785;BME280;9016;53.582;10.062;2022-08-19T10:46:31;101246.78;;;23.64;79.82
17785;BME280;9016;53.582;10.062;2022-08-19T10:49:00;101247.25;;;23.51;80.34
17785;BME280;9016;53.582;10.062;2022-08-19T10:51:29;101241.97;;;23.49;80.14
17785;BME280;9016;53.582;10.062;2022-08-19T10:54:15;101241.81;;;23.51;80.13
17785;BME280;9016;53.582;10.062;2022-08-19T10:56:57;101234.09;;;23.38;81.00
17785;BME280;9016;53.582;10.062;2022-08-19T10:59:26;101238.75;;;23.46;80.96
17785;BME280;9016;53.582;10.062;2022-08-19T11:02:03;101245.00;;;23.46;81.11
17785;BME280;9016;53.582;10.062;2022-08-19T11:04:31;101243.16;;;23.47;80.82
17785;BME280;9016;53.582;10.062;2022-08-19T11:07:02;101246.22;;;23.44;81.18
17785;BME280;9016;53.582;10.062;2022-08-19T11:09:31;101233.94;;;23.40;80.85
17785;BME280;9016;53.582;10.062;2022-08-19T11:12:00;101236.31;;;23.43;82.05
17785;BME280;9016;53.582;10.062;2022-08-19T11:14:32;101237.00;;;23.45;81.58
17785;BME280;9016;53.582;10.062;2022-08-19T11:17:01;101246.09;;;23.53;81.19
17785;BME280;9016;53.582;10.062;2022-08-19T11:19:30;101244.19;;;23.54;81.04
17785;BME280;9016;53.582;10.062;2022-08-19T11:21:58;101243.31;;;23.45;81.40
17785;BME280;9016;53.582;10.062;2022-08-19T11:24:30;101241.63;;;23.52;80.50
17785;BME280;9016;53.582;10.062;2022-08-19T11:27:04;101249.16;;;23.67;80.25
17785;BME280;9016;53.582;10.062;2022-08-19T11:29:34;101248.69;;;23.71;80.07
17785;BME280;9016;53.582;10.062;2022-08-19T11:32:04;101252.63;;;23.77;79.53
17785;BME280;9016;53.582;10.062;2022-08-19T11:34:32;101246.00;;;23.79;79.51
17785;BME280;9016;53.582;10.062;2022-08-19T11:37:02;101236.13;;;23.78;79.67
17785;BME280;9016;53.582;10.062;2022-08-19T11:39:33;101230.78;;;24.02;78.37
17785;BME280;9016;53.582;10.062;2022-08-19T11:42:03;101223.00;;;24.39;76.63
17785;BME280;9016;53.582;10.062;2022-08-19T11:44:53;101231.53;;;24.61;74.39
17785;BME280;9016;53.582;10.062;2022-08-19T11:47:21;101236.66;;;24.47;75.30
17785;BME280;9016;53.582;10.062;2022-08-19T11:49:49;101227.25;;;24.50;74.90
17785;BME280;9016;53.582;10.062;2022-08-19T11:52:17;101228.28;;;24.41;75.14
17785;BME280;9016;53.582;10.062;2022-08-19T11:54:46;101223.88;;;24.40;75.26
17785;BME280;9016;53.582;10.062;2022-08-19T11:57:14;101223.53;;;24.51;74.97
17785;BME280;9016;53.582;10.062;2022-08-19T11:59:48;101233.91;;;24.55;74.99
17785;BME280;9016;53.582;10.062;2022-08-19T12:02:17;101233.22;;;24.70;73.84
17785;BME280;9016;53.582;10.062;2022-08-19T12:04:46;101229.00;;;24.75;74.03
17785;BME280;9016;53.582;10.062;2022-08-19T12:07:14;101229.66;;;24.69;74.08
17785;BME280;9016;53.582;10.062;2022-08-19T12:09:43;101229.50;;;24.71;74.07
17785;BME280;9016;53.582;10.062;2022-08-19T12:12:14;101226.78;;;24.79;73.09
17785;BME280;9016;53.582;10.062;2022-08-19T12:14:42;101230.00;;;24.74;73.13
17785;BME280;9016;53.582;10.062;2022-08-19T12:17:11;101226.59;;;24.80;73.28
17785;BME280;9016;53.582;10.062;2022-08-19T12:19:41;101225.06;;;24.86;72.57
17785;BME280;9016;53.582;10.062;2022-08-19T12:22:09;101226.88;;;25.01;72.71
17785;BME280;9016;53.582;10.062;2022-08-19T12:24:37;101227.75;;;25.10;72.56
17785;BME280;9016;53.582;10.062;2022-08-19T12:27:05;101226.69;;;25.19;71.76
17785;BME280;9016;53.582;10.062;2022-08-19T12:29:38;101219.88;;;25.23;70.44
17785;BME280;9016;53.582;10.062;2022-08-19T12:32:06;101223.56;;;25.46;70.07
17785;BME280;9016;53.582;10.062;2022-08-19T12:34:37;101223.13;;;25.73;69.81
17785;BME280;9016;53.582;10.062;2022-08-19T12:37:07;101213.56;;;26.00;68.21
17785;BME280;9016;53.582;10.062;2022-08-19T12:39:38;101209.59;;;26.10;67.72
17785;BME280;9016;53.582;10.062;2022-08-19T12:42:06;101209.09;;;26.07;65.53
17785;BME280;9016;53.582;10.062;2022-08-19T12:44:35;101207.09;;;26.23;66.46
17785;BME280;9016;53.582;10.062;2022-08-19T12:47:06;101205.03;;;26.25;65.12
17785;BME280;9016;53.582;10.062;2022-08-19T12:49:35;101212.38;;;26.25;66.26
17785;BME280;9016;53.582;10.062;2022-08-19T12:52:23;101209.88;;;26.38;65.28
17785;BME280;9016;53.582;10.062;2022-08-19T12:54:51;101205.75;;;26.42;64.67
17785;BME280;9016;53.582;10.062;2022-08-19T12:57:21;101211.59;;;26.39;64.97
17785;BME280;9016;53.582;10.062;2022-08-19T12:59:59;101215.97;;;26.48;64.98
17785;BME280;9016;53.582;10.062;2022-08-19T13:02:31;101214.31;;;26.62;64.56
17785;BME280;9016;53.582;10.062;2022-08-19T13:05:06;101206.22;;;26.68;65.27
17785;BME280;9016;53.582;10.062;2022-08-19T13:07:38;101206.00;;;26.78;62.61
17785;BME280;9016;53.582;10.062;2022-08-19T13:10:08;101204.88;;;26.87;61.67